createdAt,value
2018-08-16T00:00:02.119Z,5.17
2018-08-16T00:00:14.673Z,5.17
2018-08-16T00:00:27.311Z,5.17
2018-08-16T00:00:39.878Z,5.17
2018-08-16T00:00:52.449Z,5.17
2018-08-16T00:01:05.006Z,5.17
2018-08-16T00:01:17.536Z,5.17
2018-08-16T00:01:30.087Z,5.17
2018-08-16T00:01:42.810Z,5.17
2018-08-16T00:01:55.330Z,5.17
2018-08-16T00:02:07.877Z,5.17
2018-08-16T00:02:20.409Z,5.17
2018-08-16T00:02:32.959Z,5.17
2018-08-16T00:02:45.592Z,5.17
2018-08-16T00:02:58.334Z,5.17
2018-08-16T00:03:10.879Z,5.17
2018-08-16T00:03:23.416Z,5.17
2018-08-16T00:03:35.938Z,5.17
2018-08-16T00:03:48.484Z,5.17
2018-08-16T00:04:01.040Z,5.95
2018-08-16T00:04:13.594Z,5.95
2018-08-16T00:04:26.125Z,5.95
2018-08-16T00:04:38.674Z,5.95
2018-08-16T00:04:51.219Z,5.95
2018-08-16T00:05:03.755Z,5.95
2018-08-16T00:05:16.280Z,5.95
2018-08-16T00:05:28.819Z,5.95
2018-08-16T00:05:41.353Z,5.95
2018-08-16T00:05:53.895Z,5.95
2018-08-16T00:06:06.423Z,5.95
2018-08-16T00:06:18.956Z,5.95
2018-08-16T00:06:31.493Z,5.95
2018-08-16T00:06:44.024Z,5.95
2018-08-16T00:06:56.564Z,5.95
2018-08-16T00:07:09.077Z,5.95
2018-08-16T00:07:21.621Z,5.95
2018-08-16T00:07:34.165Z,5.95
2018-08-16T00:07:47.047Z,5.95
2018-08-16T00:07:59.515Z,5.95
2018-08-16T00:08:11.959Z,5.95
2018-08-16T00:08:24.484Z,5.95
2018-08-16T00:08:37.018Z,5.95
2018-08-16T00:08:49.539Z,5.95
2018-08-16T00:09:02.059Z,5.95
2018-08-16T00:09:14.598Z,5.95
2018-08-16T00:09:27.160Z,5.95
2018-08-16T00:09:39.719Z,5.95
2018-08-16T00:09:52.265Z,5.95
2018-08-16T00:10:04.807Z,5.95
2018-08-16T00:10:17.357Z,5.95
2018-08-16T00:10:29.900Z,5.95
2018-08-16T00:10:42.444Z,5.95
2018-08-16T00:10:54.975Z,5.95
2018-08-16T00:11:07.495Z,5.95
2018-08-16T00:11:20.028Z,5.95
2018-08-16T00:11:32.562Z,5.95
2018-08-16T00:11:45.093Z,5.95
2018-08-16T00:11:57.648Z,5.95
2018-08-16T00:12:10.146Z,5.95
2018-08-16T00:12:22.683Z,5.95
2018-08-16T00:12:35.209Z,5.95
2018-08-16T00:12:47.783Z,5.95
2018-08-16T00:13:00.339Z,5.95
2018-08-16T00:13:12.869Z,5.95
2018-08-16T00:13:25.390Z,5.95
2018-08-16T00:13:37.940Z,5.95
2018-08-16T00:13:50.475Z,5.95
2018-08-16T00:14:03.014Z,5.8
2018-08-16T00:14:15.550Z,5.8
2018-08-16T00:14:28.121Z,5.8
2018-08-16T00:14:40.663Z,5.8
2018-08-16T00:14:53.225Z,5.8
2018-08-16T00:15:05.768Z,5.8
2018-08-16T00:15:18.368Z,5.8
2018-08-16T00:15:30.913Z,5.8
2018-08-16T00:15:43.556Z,5.8
2018-08-16T00:15:56.108Z,5.8
2018-08-16T00:16:08.640Z,5.8
2018-08-16T00:16:21.175Z,5.8
2018-08-16T00:16:33.717Z,5.8
2018-08-16T00:16:46.274Z,5.8
2018-08-16T00:16:58.800Z,5.8
2018-08-16T00:17:11.336Z,5.8
2018-08-16T00:17:23.894Z,5.8
2018-08-16T00:17:36.527Z,5.8
2018-08-16T00:17:49.204Z,5.8
2018-08-16T00:18:01.798Z,5.8
2018-08-16T00:18:14.503Z,5.8
2018-08-16T00:18:27.039Z,5.8
2018-08-16T00:18:39.566Z,5.8
2018-08-16T00:18:52.093Z,5.8
2018-08-16T00:19:04.630Z,5.8
2018-08-16T00:19:17.157Z,5.8
2018-08-16T00:19:29.704Z,5.8
2018-08-16T00:19:42.259Z,5.8
2018-08-16T00:19:54.791Z,5.8
2018-08-16T00:20:07.351Z,5.8
2018-08-16T00:20:19.873Z,5.8
2018-08-16T00:20:32.398Z,5.8
2018-08-16T00:20:44.949Z,5.8
2018-08-16T00:20:57.458Z,5.8
2018-08-16T00:21:09.986Z,5.8
2018-08-16T00:21:22.525Z,5.8
2018-08-16T00:21:35.042Z,5.8
2018-08-16T00:21:47.578Z,5.8
2018-08-16T00:22:00.108Z,5.8
2018-08-16T00:22:12.770Z,5.8
2018-08-16T00:22:25.378Z,5.8
2018-08-16T00:22:37.903Z,5.8
2018-08-16T00:22:50.438Z,5.8
2018-08-16T00:23:02.958Z,5.8
2018-08-16T00:23:15.482Z,5.8
2018-08-16T00:23:28.001Z,5.8
2018-08-16T00:23:40.525Z,5.8
2018-08-16T00:23:53.049Z,5.8
2018-08-16T00:24:05.605Z,5.52
2018-08-16T00:24:18.128Z,5.52
2018-08-16T00:24:30.650Z,5.52
2018-08-16T00:24:43.190Z,5.52
2018-08-16T00:24:55.722Z,5.52
2018-08-16T00:25:08.252Z,5.52
2018-08-16T00:25:20.789Z,5.52
2018-08-16T00:25:33.339Z,5.52
2018-08-16T00:25:45.987Z,5.52
2018-08-16T00:25:58.538Z,5.52
2018-08-16T00:26:11.077Z,5.52
2018-08-16T00:26:23.614Z,5.52
2018-08-16T00:26:36.158Z,5.52
2018-08-16T00:26:48.710Z,5.52
2018-08-16T00:27:01.239Z,5.52
2018-08-16T00:27:13.942Z,5.52
2018-08-16T00:27:26.514Z,5.52
2018-08-16T00:27:39.058Z,5.52
2018-08-16T00:27:51.604Z,5.52
2018-08-16T00:28:04.143Z,5.52
2018-08-16T00:28:16.678Z,5.52
2018-08-16T00:28:29.219Z,5.52
2018-08-16T00:28:41.769Z,5.52
2018-08-16T00:28:54.362Z,5.52
2018-08-16T00:29:06.911Z,5.52
2018-08-16T00:29:19.440Z,5.52
2018-08-16T00:29:31.987Z,5.52
2018-08-16T00:29:44.562Z,5.52
2018-08-16T00:29:57.099Z,5.52
2018-08-16T00:30:09.624Z,5.52
2018-08-16T00:30:22.423Z,5.52
2018-08-16T00:30:34.953Z,5.52
2018-08-16T00:30:47.503Z,5.52
2018-08-16T00:31:00.060Z,5.52
2018-08-16T00:31:12.615Z,5.52
2018-08-16T00:31:25.284Z,5.52
2018-08-16T00:31:37.820Z,5.52
2018-08-16T00:31:50.358Z,5.52
2018-08-16T00:32:02.881Z,5.52
2018-08-16T00:32:15.429Z,5.52
2018-08-16T00:32:27.964Z,5.52
2018-08-16T00:32:40.667Z,5.52
2018-08-16T00:32:53.203Z,5.52
2018-08-16T00:33:05.731Z,5.52
2018-08-16T00:33:18.248Z,5.52
2018-08-16T00:33:30.821Z,5.52
2018-08-16T00:33:43.331Z,5.52
2018-08-16T00:33:55.914Z,5.52
2018-08-16T00:34:08.456Z,5.68
2018-08-16T00:34:20.993Z,5.68
2018-08-16T00:34:33.543Z,5.68
2018-08-16T00:34:46.082Z,5.68
2018-08-16T00:34:58.628Z,5.68
2018-08-16T00:35:11.181Z,5.68
2018-08-16T00:35:23.748Z,5.68
2018-08-16T00:35:36.293Z,5.68
2018-08-16T00:35:48.841Z,5.68
2018-08-16T00:36:01.407Z,5.68
2018-08-16T00:36:13.971Z,5.68
2018-08-16T00:36:26.534Z,5.68
2018-08-16T00:36:39.093Z,5.68
2018-08-16T00:36:51.642Z,5.68
2018-08-16T00:37:04.378Z,5.68
2018-08-16T00:37:16.902Z,5.68
2018-08-16T00:37:29.443Z,5.68
2018-08-16T00:37:41.992Z,5.68
2018-08-16T00:37:54.550Z,5.68
2018-08-16T00:38:07.108Z,5.68
2018-08-16T00:38:19.638Z,5.68
2018-08-16T00:38:32.162Z,5.68
2018-08-16T00:38:44.695Z,5.68
2018-08-16T00:38:57.252Z,5.68
2018-08-16T00:39:09.820Z,5.68
2018-08-16T00:39:22.363Z,5.68
2018-08-16T00:39:34.884Z,5.68
2018-08-16T00:39:47.410Z,5.68
2018-08-16T00:39:59.958Z,5.68
2018-08-16T00:40:12.492Z,5.68
2018-08-16T00:40:25.022Z,5.68
2018-08-16T00:40:37.611Z,5.68
2018-08-16T00:40:50.181Z,5.68
2018-08-16T00:41:02.740Z,5.68
2018-08-16T00:41:15.286Z,5.68
2018-08-16T00:41:27.820Z,5.68
2018-08-16T00:41:40.354Z,5.68
2018-08-16T00:41:52.903Z,5.68
2018-08-16T00:42:05.550Z,5.68
2018-08-16T00:42:18.141Z,5.68
2018-08-16T00:42:30.696Z,5.68
2018-08-16T00:42:43.236Z,5.68
2018-08-16T00:42:55.767Z,5.68
2018-08-16T00:43:08.308Z,5.68
2018-08-16T00:43:20.845Z,5.68
2018-08-16T00:43:33.369Z,5.68
2018-08-16T00:43:45.900Z,5.68
2018-08-16T00:43:58.453Z,5.68
2018-08-16T00:44:11.002Z,6
2018-08-16T00:44:23.547Z,6
2018-08-16T00:44:36.749Z,6
2018-08-16T00:44:49.268Z,6
2018-08-16T00:45:01.836Z,6
2018-08-16T00:45:14.382Z,6
2018-08-16T00:45:26.961Z,6
2018-08-16T00:45:39.480Z,6
2018-08-16T00:45:52.020Z,6
2018-08-16T00:46:04.573Z,6
2018-08-16T00:46:17.143Z,6
2018-08-16T00:46:29.682Z,6
2018-08-16T00:46:42.356Z,6
2018-08-16T00:46:55.042Z,6
2018-08-16T00:47:07.575Z,6
2018-08-16T00:47:20.185Z,6
2018-08-16T00:47:32.726Z,6
2018-08-16T00:47:45.295Z,6
2018-08-16T00:47:57.915Z,6
2018-08-16T00:48:10.463Z,6
2018-08-16T00:48:22.985Z,6
2018-08-16T00:48:35.520Z,6
2018-08-16T00:48:48.146Z,6
2018-08-16T00:49:00.673Z,6
2018-08-16T00:49:13.376Z,6
2018-08-16T00:49:25.947Z,6
2018-08-16T00:49:38.497Z,6
2018-08-16T00:49:51.091Z,6
2018-08-16T00:50:03.660Z,6
2018-08-16T00:50:16.212Z,6
2018-08-16T00:50:28.766Z,6
2018-08-16T00:50:41.317Z,6
2018-08-16T00:50:53.844Z,6
2018-08-16T00:51:06.370Z,6
2018-08-16T00:51:18.971Z,6
2018-08-16T00:51:31.527Z,6
2018-08-16T00:51:44.058Z,6
2018-08-16T00:51:56.669Z,6
2018-08-16T00:52:09.199Z,6
2018-08-16T00:52:21.737Z,6
2018-08-16T00:52:34.257Z,6
2018-08-16T00:52:46.831Z,6
2018-08-16T00:52:59.376Z,6
2018-08-16T00:53:11.929Z,6
2018-08-16T00:53:24.464Z,6
2018-08-16T00:53:36.976Z,6
2018-08-16T00:53:49.542Z,6
2018-08-16T00:54:02.048Z,6.29
2018-08-16T00:54:14.573Z,6.29
2018-08-16T00:54:27.349Z,6.29
2018-08-16T00:54:39.855Z,6.29
2018-08-16T00:54:52.382Z,6.29
2018-08-16T00:55:04.913Z,6.29
2018-08-16T00:55:17.585Z,6.29
2018-08-16T00:55:30.102Z,6.29
2018-08-16T00:55:42.618Z,6.29
2018-08-16T00:55:55.154Z,6.29
2018-08-16T00:56:07.682Z,6.29
2018-08-16T00:56:20.216Z,6.29
2018-08-16T00:56:32.727Z,6.29
2018-08-16T00:56:45.235Z,6.29
2018-08-16T00:56:57.750Z,6.29
2018-08-16T00:57:10.282Z,6.29
2018-08-16T00:57:22.821Z,6.29
2018-08-16T00:57:35.337Z,6.29
2018-08-16T00:57:47.880Z,6.29
2018-08-16T00:58:00.422Z,6.29
2018-08-16T00:58:12.950Z,6.29
2018-08-16T00:58:25.477Z,6.29
2018-08-16T00:58:38.006Z,6.29
2018-08-16T00:58:50.674Z,6.29
2018-08-16T00:59:03.410Z,6.29
2018-08-16T00:59:15.912Z,6.29
2018-08-16T00:59:28.550Z,6.29
2018-08-16T00:59:41.090Z,6.29
2018-08-16T00:59:53.626Z,6.29
2018-08-16T01:00:06.167Z,6.29
2018-08-16T01:00:18.695Z,6.29
2018-08-16T01:00:31.264Z,6.29
2018-08-16T01:00:43.818Z,6.29
2018-08-16T01:00:56.373Z,6.29
2018-08-16T01:01:08.924Z,6.29
2018-08-16T01:01:21.458Z,6.29
2018-08-16T01:01:34.243Z,6.29
2018-08-16T01:01:47.009Z,6.29
2018-08-16T01:01:59.584Z,6.29
2018-08-16T01:02:12.246Z,6.29
2018-08-16T01:02:24.844Z,6.29
2018-08-16T01:02:37.541Z,6.29
2018-08-16T01:02:50.061Z,6.29
2018-08-16T01:03:02.588Z,6.29
2018-08-16T01:03:15.119Z,6.29
2018-08-16T01:03:27.669Z,6.29
2018-08-16T01:03:40.205Z,6.29
2018-08-16T01:03:52.735Z,6.29
2018-08-16T01:04:05.281Z,6.87
2018-08-16T01:04:17.826Z,6.87
2018-08-16T01:04:30.385Z,6.87
2018-08-16T01:04:42.920Z,6.87
2018-08-16T01:04:55.456Z,6.87
2018-08-16T01:05:08.019Z,6.87
2018-08-16T01:05:20.580Z,6.87
2018-08-16T01:05:33.100Z,6.87
2018-08-16T01:05:45.646Z,6.87
2018-08-16T01:05:58.206Z,6.87
2018-08-16T01:06:10.721Z,6.87
2018-08-16T01:06:23.269Z,6.87
2018-08-16T01:06:35.803Z,6.87
2018-08-16T01:06:48.488Z,6.87
2018-08-16T01:07:01.029Z,6.87
2018-08-16T01:07:13.636Z,6.87
2018-08-16T01:07:26.163Z,6.87
2018-08-16T01:07:38.758Z,6.87
2018-08-16T01:07:51.298Z,6.87
2018-08-16T01:08:03.841Z,6.87
2018-08-16T01:08:16.382Z,6.87
2018-08-16T01:08:28.939Z,6.87
2018-08-16T01:08:41.542Z,6.87
2018-08-16T01:08:54.096Z,6.87
2018-08-16T01:09:06.718Z,6.87
2018-08-16T01:09:19.275Z,6.87
2018-08-16T01:09:31.824Z,6.87
2018-08-16T01:09:44.360Z,6.87
2018-08-16T01:09:56.884Z,6.87
2018-08-16T01:10:09.412Z,6.87
2018-08-16T01:10:21.960Z,6.87
2018-08-16T01:10:34.519Z,6.87
2018-08-16T01:10:47.093Z,6.87
2018-08-16T01:10:59.626Z,6.87
2018-08-16T01:11:12.200Z,6.87
2018-08-16T01:11:24.811Z,6.87
2018-08-16T01:11:37.463Z,6.87
2018-08-16T01:11:50.007Z,6.87
2018-08-16T01:12:02.536Z,6.87
2018-08-16T01:12:15.104Z,6.87
2018-08-16T01:12:27.763Z,6.87
2018-08-16T01:12:40.350Z,6.87
2018-08-16T01:12:52.873Z,6.87
2018-08-16T01:13:05.399Z,6.87
2018-08-16T01:13:17.954Z,6.87
2018-08-16T01:13:30.547Z,6.87
2018-08-16T01:13:43.120Z,6.87
2018-08-16T01:13:55.670Z,6.87
2018-08-16T01:14:08.197Z,5.12
2018-08-16T01:14:20.781Z,5.12
2018-08-16T01:14:33.317Z,5.12
2018-08-16T01:14:45.837Z,5.12
2018-08-16T01:14:58.379Z,5.12
2018-08-16T01:15:10.941Z,5.12
2018-08-16T01:15:23.485Z,5.12
2018-08-16T01:15:36.020Z,5.12
2018-08-16T01:15:48.552Z,5.12
2018-08-16T01:16:01.094Z,5.12
2018-08-16T01:16:13.638Z,5.12
2018-08-16T01:16:26.148Z,5.12
2018-08-16T01:16:38.682Z,5.12
2018-08-16T01:16:51.215Z,5.12
2018-08-16T01:17:03.755Z,5.12
2018-08-16T01:17:16.398Z,5.12
2018-08-16T01:17:29.089Z,5.12
2018-08-16T01:17:41.809Z,5.12
2018-08-16T01:17:54.353Z,5.12
2018-08-16T01:18:06.919Z,5.12
2018-08-16T01:18:19.519Z,5.12
2018-08-16T01:18:32.246Z,5.12
2018-08-16T01:18:44.769Z,5.12
2018-08-16T01:18:57.300Z,5.12
2018-08-16T01:19:09.816Z,5.12
2018-08-16T01:19:22.396Z,5.12
2018-08-16T01:19:34.961Z,5.12
2018-08-16T01:19:47.504Z,5.12
2018-08-16T01:20:00.049Z,5.12
2018-08-16T01:20:13.068Z,5.12
2018-08-16T01:20:26.682Z,5.12
2018-08-16T01:20:39.265Z,5.12
2018-08-16T01:20:51.789Z,5.12
2018-08-16T01:21:04.349Z,5.12
2018-08-16T01:21:16.926Z,5.12
2018-08-16T01:21:29.456Z,5.12
2018-08-16T01:21:42.006Z,5.12
2018-08-16T01:21:54.566Z,5.12
2018-08-16T01:22:07.107Z,5.12
2018-08-16T01:22:19.817Z,5.12
2018-08-16T01:22:32.360Z,5.12
2018-08-16T01:22:44.898Z,5.12
2018-08-16T01:22:57.664Z,5.12
2018-08-16T01:23:10.203Z,5.12
2018-08-16T01:23:22.746Z,5.12
2018-08-16T01:23:35.254Z,5.12
2018-08-16T01:23:47.808Z,5.12
2018-08-16T01:24:00.344Z,5.12
2018-08-16T01:24:12.877Z,5.75
2018-08-16T01:24:25.431Z,5.75
2018-08-16T01:24:37.978Z,5.75
2018-08-16T01:24:50.513Z,5.75
2018-08-16T01:25:03.030Z,5.75
2018-08-16T01:25:15.592Z,5.75
2018-08-16T01:25:28.134Z,5.75
2018-08-16T01:25:40.810Z,5.75
2018-08-16T01:25:53.350Z,5.75
2018-08-16T01:26:05.885Z,5.75
2018-08-16T01:26:18.441Z,5.75
2018-08-16T01:26:30.954Z,5.75
2018-08-16T01:26:43.517Z,5.75
2018-08-16T01:26:56.038Z,5.75
2018-08-16T01:27:08.580Z,5.75
2018-08-16T01:27:21.195Z,5.75
2018-08-16T01:27:33.758Z,5.75
2018-08-16T01:27:46.343Z,5.75
2018-08-16T01:27:58.879Z,5.75
2018-08-16T01:28:11.407Z,5.75
2018-08-16T01:28:23.999Z,5.75
2018-08-16T01:28:36.555Z,5.75
2018-08-16T01:28:49.090Z,5.75
2018-08-16T01:29:01.620Z,5.75
2018-08-16T01:29:14.164Z,5.75
2018-08-16T01:29:26.722Z,5.75
2018-08-16T01:29:39.278Z,5.75
2018-08-16T01:29:51.797Z,5.75
2018-08-16T01:30:04.329Z,5.75
2018-08-16T01:30:16.874Z,5.75
2018-08-16T01:30:29.425Z,5.75
2018-08-16T01:30:41.990Z,5.75
2018-08-16T01:30:54.553Z,5.75
2018-08-16T01:31:07.093Z,5.75
2018-08-16T01:31:19.623Z,5.75
2018-08-16T01:31:32.187Z,5.75
2018-08-16T01:31:44.730Z,5.75
2018-08-16T01:31:57.260Z,5.75
2018-08-16T01:32:09.818Z,5.75
2018-08-16T01:32:22.417Z,5.75
2018-08-16T01:32:34.993Z,5.75
2018-08-16T01:32:47.739Z,5.75
2018-08-16T01:33:00.309Z,5.75
2018-08-16T01:33:12.845Z,5.75
2018-08-16T01:33:25.420Z,5.75
2018-08-16T01:33:38.048Z,5.75
2018-08-16T01:33:50.590Z,5.75
2018-08-16T01:34:03.113Z,5.75
2018-08-16T01:34:15.650Z,6.46
2018-08-16T01:34:28.179Z,6.46
2018-08-16T01:34:40.736Z,6.46
2018-08-16T01:34:53.358Z,6.46
2018-08-16T01:35:05.891Z,6.46
2018-08-16T01:35:18.425Z,6.46
2018-08-16T01:35:31.237Z,6.46
2018-08-16T01:35:44.984Z,6.46
2018-08-16T01:35:57.733Z,6.46
2018-08-16T01:36:10.270Z,6.46
2018-08-16T01:36:22.791Z,6.46
2018-08-16T01:36:35.335Z,6.46
2018-08-16T01:36:47.863Z,6.46
2018-08-16T01:37:00.379Z,6.46
2018-08-16T01:37:13.055Z,6.46
2018-08-16T01:37:25.589Z,6.46
2018-08-16T01:37:38.128Z,6.46
2018-08-16T01:37:50.789Z,6.46
2018-08-16T01:38:03.319Z,6.46
2018-08-16T01:38:15.853Z,6.46
2018-08-16T01:38:28.379Z,6.46
2018-08-16T01:38:40.920Z,6.46
2018-08-16T01:38:53.468Z,6.46
2018-08-16T01:39:05.992Z,6.46
2018-08-16T01:39:18.879Z,6.46
2018-08-16T01:39:31.430Z,6.46
2018-08-16T01:39:43.981Z,6.46
2018-08-16T01:39:56.527Z,6.46
2018-08-16T01:40:09.116Z,6.46
2018-08-16T01:40:21.641Z,6.46
2018-08-16T01:40:34.236Z,6.46
2018-08-16T01:40:46.779Z,6.46
2018-08-16T01:40:59.310Z,6.46
2018-08-16T01:41:11.868Z,6.46
2018-08-16T01:41:24.443Z,6.46
2018-08-16T01:41:36.987Z,6.46
2018-08-16T01:41:49.551Z,6.46
2018-08-16T01:42:02.101Z,6.46
2018-08-16T01:42:14.662Z,6.46
2018-08-16T01:42:27.231Z,6.46
2018-08-16T01:42:39.780Z,6.46
2018-08-16T01:42:52.347Z,6.46
2018-08-16T01:43:04.882Z,6.46
2018-08-16T01:43:17.429Z,6.46
2018-08-16T01:43:29.981Z,6.46
2018-08-16T01:43:42.533Z,6.46
2018-08-16T01:43:55.088Z,6.46
2018-08-16T01:44:07.800Z,6.46
2018-08-16T01:44:20.328Z,6.02
2018-08-16T01:44:33.151Z,6.02
2018-08-16T01:44:45.682Z,6.02
2018-08-16T01:44:58.225Z,6.02
2018-08-16T01:45:10.801Z,6.02
2018-08-16T01:45:23.368Z,6.02
2018-08-16T01:45:35.911Z,6.02
2018-08-16T01:45:48.537Z,6.02
2018-08-16T01:46:01.128Z,6.02
2018-08-16T01:46:13.663Z,6.02
2018-08-16T01:46:26.227Z,6.02
2018-08-16T01:46:38.914Z,6.02
2018-08-16T01:46:51.435Z,6.02
2018-08-16T01:47:03.996Z,6.02
2018-08-16T01:47:16.535Z,6.02
2018-08-16T01:47:29.046Z,6.02
2018-08-16T01:47:41.612Z,6.02
2018-08-16T01:47:54.170Z,6.02
2018-08-16T01:48:06.723Z,6.02
2018-08-16T01:48:19.241Z,6.02
2018-08-16T01:48:31.792Z,6.02
2018-08-16T01:48:44.340Z,6.02
2018-08-16T01:48:57.056Z,6.02
2018-08-16T01:49:09.860Z,6.02
2018-08-16T01:49:22.398Z,6.02
2018-08-16T01:49:34.924Z,6.02
2018-08-16T01:49:47.439Z,6.02
2018-08-16T01:49:59.975Z,6.02
2018-08-16T01:50:12.500Z,6.02
2018-08-16T01:50:25.026Z,6.02
2018-08-16T01:50:37.576Z,6.02
2018-08-16T01:50:50.106Z,6.02
2018-08-16T01:51:02.624Z,6.02
2018-08-16T01:51:15.194Z,6.02
2018-08-16T01:51:27.741Z,6.02
2018-08-16T01:51:40.263Z,6.02
2018-08-16T01:51:52.858Z,6.02
2018-08-16T01:52:05.381Z,6.02
2018-08-16T01:52:17.921Z,6.02
2018-08-16T01:52:30.436Z,6.02
2018-08-16T01:52:42.960Z,6.02
2018-08-16T01:52:55.471Z,6.02
2018-08-16T01:53:08.020Z,6.02
2018-08-16T01:53:20.602Z,6.02
2018-08-16T01:53:33.130Z,6.02
2018-08-16T01:53:45.674Z,6.02
2018-08-16T01:53:58.235Z,6.02
2018-08-16T01:54:10.787Z,6.02
2018-08-16T01:54:23.389Z,6.23
2018-08-16T01:54:35.947Z,6.23
2018-08-16T01:54:48.491Z,6.23
2018-08-16T01:55:01.023Z,6.23
2018-08-16T01:55:13.562Z,6.23
2018-08-16T01:55:26.084Z,6.23
2018-08-16T01:55:38.624Z,6.23
2018-08-16T01:55:51.213Z,6.23
2018-08-16T01:56:03.757Z,6.23
2018-08-16T01:56:16.305Z,6.23
2018-08-16T01:56:28.848Z,6.23
2018-08-16T01:56:41.406Z,6.23
2018-08-16T01:56:53.948Z,6.23
2018-08-16T01:57:06.475Z,6.23
2018-08-16T01:57:19.085Z,6.23
2018-08-16T01:57:31.609Z,6.23
2018-08-16T01:57:44.151Z,6.23
2018-08-16T01:57:56.699Z,6.23
2018-08-16T01:58:09.260Z,6.23
2018-08-16T01:58:21.794Z,6.23
2018-08-16T01:58:34.335Z,6.23
2018-08-16T01:58:46.931Z,6.23
2018-08-16T01:58:59.486Z,6.23
2018-08-16T01:59:12.219Z,6.23
2018-08-16T01:59:24.760Z,6.23
2018-08-16T01:59:37.297Z,6.23
2018-08-16T01:59:49.834Z,6.23
2018-08-16T02:00:02.371Z,6.23
2018-08-16T02:00:14.932Z,6.23
2018-08-16T02:00:27.466Z,6.23
2018-08-16T02:00:40.001Z,6.23
2018-08-16T02:00:52.538Z,6.23
2018-08-16T02:01:05.105Z,6.23
2018-08-16T02:01:17.663Z,6.23
2018-08-16T02:01:30.239Z,6.23
2018-08-16T02:01:42.881Z,6.23
2018-08-16T02:01:55.426Z,6.23
2018-08-16T02:02:08.009Z,6.23
2018-08-16T02:02:20.608Z,6.23
2018-08-16T02:02:33.288Z,6.23
2018-08-16T02:02:46.057Z,6.23
2018-08-16T02:02:58.595Z,6.23
2018-08-16T02:03:11.113Z,6.23
2018-08-16T02:03:23.654Z,6.23
2018-08-16T02:03:36.202Z,6.23
2018-08-16T02:03:48.736Z,6.23
2018-08-16T02:04:01.287Z,6.23
2018-08-16T02:04:13.881Z,5.8
2018-08-16T02:04:26.432Z,5.8
2018-08-16T02:04:39.102Z,5.8
2018-08-16T02:04:51.691Z,5.8
2018-08-16T02:05:04.402Z,5.8
2018-08-16T02:05:18.129Z,5.8
2018-08-16T02:05:31.157Z,5.8
2018-08-16T02:05:43.770Z,5.8
2018-08-16T02:05:56.338Z,5.8
2018-08-16T02:06:08.900Z,5.8
2018-08-16T02:06:21.420Z,5.8
2018-08-16T02:06:33.950Z,5.8
2018-08-16T02:06:46.504Z,5.8
2018-08-16T02:06:59.024Z,5.8
2018-08-16T02:07:11.563Z,5.8
2018-08-16T02:07:24.118Z,5.8
2018-08-16T02:07:36.683Z,5.8
2018-08-16T02:07:49.215Z,5.8
2018-08-16T02:08:01.733Z,5.8
2018-08-16T02:08:14.270Z,5.8
2018-08-16T02:08:26.798Z,5.8
2018-08-16T02:08:39.339Z,5.8
2018-08-16T02:08:51.885Z,5.8
2018-08-16T02:09:04.414Z,5.8
2018-08-16T02:09:16.937Z,5.8
2018-08-16T02:09:29.477Z,5.8
2018-08-16T02:09:42.034Z,5.8
2018-08-16T02:09:54.585Z,5.8
2018-08-16T02:10:07.169Z,5.8
2018-08-16T02:10:19.727Z,5.8
2018-08-16T02:10:32.246Z,5.8
2018-08-16T02:10:44.869Z,5.8
2018-08-16T02:10:57.437Z,5.8
2018-08-16T02:11:09.984Z,5.8
2018-08-16T02:11:22.556Z,5.8
2018-08-16T02:11:35.100Z,5.8
2018-08-16T02:11:47.636Z,5.8
2018-08-16T02:12:00.176Z,5.8
2018-08-16T02:12:12.712Z,5.8
2018-08-16T02:12:25.350Z,5.8
2018-08-16T02:12:37.935Z,5.8
2018-08-16T02:12:50.489Z,5.8
2018-08-16T02:13:03.013Z,5.8
2018-08-16T02:13:15.779Z,5.8
2018-08-16T02:13:28.325Z,5.8
2018-08-16T02:13:40.851Z,5.8
2018-08-16T02:13:53.385Z,5.8
2018-08-16T02:14:06.036Z,5.8
2018-08-16T02:14:18.574Z,6.17
2018-08-16T02:14:31.169Z,6.17
2018-08-16T02:14:43.731Z,6.17
2018-08-16T02:14:56.273Z,6.17
2018-08-16T02:15:08.804Z,6.17
2018-08-16T02:15:21.344Z,6.17
2018-08-16T02:15:33.887Z,6.17
2018-08-16T02:15:46.451Z,6.17
2018-08-16T02:15:59.003Z,6.17
2018-08-16T02:16:11.601Z,6.17
2018-08-16T02:16:24.125Z,6.17
2018-08-16T02:16:36.690Z,6.17
2018-08-16T02:16:49.222Z,6.17
2018-08-16T02:17:01.782Z,6.17
2018-08-16T02:17:14.342Z,6.17
2018-08-16T02:17:26.997Z,6.17
2018-08-16T02:17:39.740Z,6.17
2018-08-16T02:17:52.302Z,6.17
2018-08-16T02:18:04.860Z,6.17
2018-08-16T02:18:17.370Z,6.17
2018-08-16T02:18:29.895Z,6.17
2018-08-16T02:18:42.469Z,6.17
2018-08-16T02:18:55.041Z,6.17
2018-08-16T02:19:07.596Z,6.17
2018-08-16T02:19:20.161Z,6.17
2018-08-16T02:19:32.742Z,6.17
2018-08-16T02:19:45.293Z,6.17
2018-08-16T02:19:57.845Z,6.17
2018-08-16T02:20:10.401Z,6.17
2018-08-16T02:20:22.958Z,6.17
2018-08-16T02:20:35.502Z,6.17
2018-08-16T02:20:48.043Z,6.17
2018-08-16T02:21:00.640Z,6.17
2018-08-16T02:21:13.186Z,6.17
2018-08-16T02:21:25.724Z,6.17
2018-08-16T02:21:38.323Z,6.17
2018-08-16T02:21:50.854Z,6.17
2018-08-16T02:22:03.421Z,6.17
2018-08-16T02:22:16.159Z,6.17
2018-08-16T02:22:28.702Z,6.17
2018-08-16T02:22:41.233Z,6.17
2018-08-16T02:22:53.786Z,6.17
2018-08-16T02:23:06.332Z,6.17
2018-08-16T02:23:18.911Z,6.17
2018-08-16T02:23:31.645Z,6.17
2018-08-16T02:23:44.296Z,6.17
2018-08-16T02:23:56.828Z,6.17
2018-08-16T02:24:09.383Z,6.17
2018-08-16T02:24:21.915Z,6.01
2018-08-16T02:24:34.471Z,6.01
2018-08-16T02:24:47.031Z,6.01
2018-08-16T02:24:59.598Z,6.01
2018-08-16T02:25:12.126Z,6.01
2018-08-16T02:25:24.681Z,6.01
2018-08-16T02:25:37.374Z,6.01
2018-08-16T02:25:49.941Z,6.01
2018-08-16T02:26:02.452Z,6.01
2018-08-16T02:26:14.996Z,6.01
2018-08-16T02:26:27.550Z,6.01
2018-08-16T02:26:40.110Z,6.01
2018-08-16T02:26:52.666Z,6.01
2018-08-16T02:27:05.204Z,6.01
2018-08-16T02:27:17.823Z,6.01
2018-08-16T02:27:30.343Z,6.01
2018-08-16T02:27:42.881Z,6.01
2018-08-16T02:27:55.446Z,6.01
2018-08-16T02:28:08.021Z,6.01
2018-08-16T02:28:20.562Z,6.01
2018-08-16T02:28:33.103Z,6.01
2018-08-16T02:28:45.665Z,6.01
2018-08-16T02:28:58.208Z,6.01
2018-08-16T02:29:10.743Z,6.01
2018-08-16T02:29:23.279Z,6.01
2018-08-16T02:29:35.841Z,6.01
2018-08-16T02:29:48.387Z,6.01
2018-08-16T02:30:00.932Z,6.01
2018-08-16T02:30:13.497Z,6.01
2018-08-16T02:30:26.051Z,6.01
2018-08-16T02:30:38.644Z,6.01
2018-08-16T02:30:51.194Z,6.01
2018-08-16T02:31:03.791Z,6.01
2018-08-16T02:31:16.404Z,6.01
2018-08-16T02:31:28.987Z,6.01
2018-08-16T02:31:41.527Z,6.01
2018-08-16T02:31:54.129Z,6.01
2018-08-16T02:32:06.761Z,6.01
2018-08-16T02:32:19.336Z,6.01
2018-08-16T02:32:31.902Z,6.01
2018-08-16T02:32:44.615Z,6.01
2018-08-16T02:32:57.202Z,6.01
2018-08-16T02:33:09.740Z,6.01
2018-08-16T02:33:22.286Z,6.01
2018-08-16T02:33:35.670Z,6.01
2018-08-16T02:33:49.612Z,6.01
2018-08-16T02:34:02.175Z,6.01
2018-08-16T02:34:14.750Z,5.88
2018-08-16T02:34:27.330Z,5.88
2018-08-16T02:34:39.952Z,5.88
2018-08-16T02:34:52.508Z,5.88
2018-08-16T02:35:05.045Z,5.88
2018-08-16T02:35:17.631Z,5.88
2018-08-16T02:35:30.188Z,5.88
2018-08-16T02:35:42.800Z,5.88
2018-08-16T02:35:55.398Z,5.88
2018-08-16T02:36:07.959Z,5.88
2018-08-16T02:36:20.518Z,5.88
2018-08-16T02:36:33.081Z,5.88
2018-08-16T02:36:45.621Z,5.88
2018-08-16T02:36:58.209Z,5.88
2018-08-16T02:37:10.934Z,5.88
2018-08-16T02:37:23.580Z,5.88
2018-08-16T02:37:36.167Z,5.88
2018-08-16T02:37:48.722Z,5.88
2018-08-16T02:38:01.276Z,5.88
2018-08-16T02:38:13.847Z,5.88
2018-08-16T02:38:26.389Z,5.88
2018-08-16T02:38:38.990Z,5.88
2018-08-16T02:38:51.506Z,5.88
2018-08-16T02:39:04.028Z,5.88
2018-08-16T02:39:16.573Z,5.88
2018-08-16T02:39:29.312Z,5.88
2018-08-16T02:39:41.863Z,5.88
2018-08-16T02:39:54.403Z,5.88
2018-08-16T02:40:06.948Z,5.88
2018-08-16T02:40:19.473Z,5.88
2018-08-16T02:40:32.041Z,5.88
2018-08-16T02:40:44.580Z,5.88
2018-08-16T02:40:57.098Z,5.88
2018-08-16T02:41:09.623Z,5.88
2018-08-16T02:41:22.141Z,5.88
2018-08-16T02:41:34.660Z,5.88
2018-08-16T02:41:47.193Z,5.88
2018-08-16T02:41:59.729Z,5.88
2018-08-16T02:42:12.443Z,5.88
2018-08-16T02:42:24.964Z,5.88
2018-08-16T02:42:37.670Z,5.88
2018-08-16T02:42:50.218Z,5.88
2018-08-16T02:43:02.755Z,5.88
2018-08-16T02:43:15.290Z,5.88
2018-08-16T02:43:27.829Z,5.88
2018-08-16T02:43:40.406Z,5.88
2018-08-16T02:43:52.963Z,5.88
2018-08-16T02:44:05.506Z,5.88
2018-08-16T02:44:18.055Z,6.08
2018-08-16T02:44:30.587Z,6.08
2018-08-16T02:44:43.143Z,6.08
2018-08-16T02:44:55.681Z,6.08
2018-08-16T02:45:08.241Z,6.08
2018-08-16T02:45:20.778Z,6.08
2018-08-16T02:45:33.366Z,6.08
2018-08-16T02:45:45.888Z,6.08
2018-08-16T02:45:58.409Z,6.08
2018-08-16T02:46:10.933Z,6.08
2018-08-16T02:46:23.543Z,6.08
2018-08-16T02:46:36.131Z,6.08
2018-08-16T02:46:48.841Z,6.08
2018-08-16T02:47:01.415Z,6.08
2018-08-16T02:47:13.970Z,6.08
2018-08-16T02:47:26.517Z,6.08
2018-08-16T02:47:39.066Z,6.08
2018-08-16T02:47:51.614Z,6.08
2018-08-16T02:48:04.156Z,6.08
2018-08-16T02:48:16.682Z,6.08
2018-08-16T02:48:29.202Z,6.08
2018-08-16T02:48:41.726Z,6.08
2018-08-16T02:48:54.423Z,6.08